Flight Track Log - Related Links

Times and Time Zones

All times are in EST time to prevent confusion due to time zone crossing. See the SWA1181 flight status page for this flight to view local times or setup timezone preferences in your user account.

Time Position Orientation Groundspeed Altitude Reporting Facility
EST Latitude Longitude Course Direction KTS MPH feet Rate Location/Type
Mon 09:58:58 AM 45.5806 -122.5633 103° East 154 177 1,000  Level Seattle Center
Mon 09:59:52 AM 45.5722 -122.5111 103° East 166 191 3,100 2,316 Climbing Seattle Center
Mon 09:59:55 AM 45.5736 -122.5089 48° Northeast 155 178 3,200 1,967 Climbing Seattle Center
Mon 10:00:53 AM 45.5600 -122.4297 104° East 231 266 5,100 2,000 Climbing Seattle Center
Mon 10:00:55 AM 45.5600 -122.4278 90° East 216 249 5,200 3,100 Climbing Seattle Center
Mon 10:01:53 AM 45.5028 -122.3822 151° Southeast 282 325 8,200 3,344 Climbing Seattle Center
Mon 10:01:56 AM 45.4986 -122.3833 191° South 271 312 8,600 3,048 Climbing Seattle Center
Mon 10:02:56 AM 45.4161 -122.3864 181° South 298 343 11,400 3,124 Climbing Seattle Center
Mon 10:03:57 AM 45.3192 -122.3881 181° South 346 398 14,900 3,174 Climbing Seattle Center
Mon 10:04:57 AM 45.2178 -122.3869 180° South 362 417 17,800 2,678 Climbing Seattle Center
Mon 10:05:58 AM 45.1261 -122.3900 181° South 370 426 20,300 2,628 Climbing Seattle Center
Mon 10:06:58 AM 45.0153 -122.3903 180° South 386 444 23,100 2,579 Climbing Seattle Center
Mon 10:07:59 AM 44.9000 -122.3808 177° South 405 466 25,500 2,262 Climbing Seattle Center
Mon 10:09:00 AM 44.7797 -122.3481 169° South 423 487 27,700 1,983 Climbing Seattle Center
Mon 10:10:00 AM 44.6589 -122.3172 170° South 435 501 29,500 1,785 Climbing Seattle Center
Mon 10:11:01 AM 44.5336 -122.2867 170° South 448 516 31,300 2,033 Climbing Seattle Center
Mon 10:12:01 AM 44.4103 -122.2550 170° South 450 518 33,600 2,083 Climbing Seattle Center
Mon 10:13:02 AM 44.2872 -122.2258 170° South 447 514 35,500 1,377 Climbing Seattle Center
Mon 10:14:03 AM 44.1650 -122.1964 170° South 446 513 36,400 992 Climbing Seattle Center
Mon 10:15:03 AM 44.0375 -122.1653 170° South 458 527 37,500 1,289 Climbing Seattle Center
Mon 10:16:04 AM 43.9114 -122.1353 170° South 459 528 39,000 744 Climbing Seattle Center
Mon 10:17:04 AM 43.7867 -122.1056 170° South 454 522 39,000  Level Seattle Center
Mon 10:18:05 AM 43.6619 -122.0775 171° South 453 521 39,000  Level Seattle Center
Mon 10:19:05 AM 43.5372 -122.0597 174° South 450 518 39,000  Level Seattle Center
Mon 10:20:06 AM 43.4136 -122.0469 176° South 444 511 39,000  Level Seattle Center
Mon 10:21:06 AM 43.2886 -122.0328 175° South 448 516 39,000  Level Seattle Center
Mon 10:22:07 AM 43.1619 -122.0186 175° South 446 513 39,000  Level Seattle Center
Mon 10:23:08 AM 43.0369 -122.0050 175° South 449 517 39,000  Level Seattle Center
Mon 10:24:08 AM 42.9133 -121.9903 175° South 447 514 39,000  Level Seattle Center
Mon 10:25:09 AM 42.7878 -121.9783 176° South 451 519 39,000  Level Seattle Center
Mon 10:26:10 AM 42.6639 -121.9633 175° South 447 514 39,000  Level Seattle Center
Mon 10:27:10 AM 42.5144 -121.9472 175° South 450 518 39,000  Level Seattle Center
Mon 10:28:11 AM 42.3908 -121.9353 176° South 446 513 39,000  Level Seattle Center
Mon 10:29:12 AM 42.2672 -121.9222 176° South 444 511 39,000  Level Seattle Center
Mon 10:30:12 AM 42.1442 -121.9094 176° South 439 505 39,000  Level Seattle Center
Mon 10:31:13 AM 42.0244 -121.8917 174° South 443 510 39,000  Level Seattle Center
Mon 10:32:14 AM 41.9144 -121.8858 178° South 441 507 39,000  Level Seattle Center
Mon 10:33:14 AM 41.7911 -121.8731 176° South 441 507 39,000  Level Seattle Center
Mon 10:34:15 AM 41.6661 -121.8594 175° South 447 514 39,000  Level Seattle Center
Mon 10:35:16 AM 41.5181 -121.8450 176° South 446 513 39,000  Level Seattle Center
Mon 10:36:16 AM 41.3933 -121.8336 176° South 448 516 39,000  Level Seattle Center
Mon 10:37:13 AM 41.2906 -121.8181 174° South 451 519 39,000  Level Oakland Center
Mon 10:38:14 AM 41.1653 -121.8058 176° South 451 519 39,000  Level Oakland Center
Mon 10:39:15 AM 41.0297 -121.7936 176° South 433 498 39,000 -689 Level Oakland Center
Mon 10:40:16 AM 40.9064 -121.7806 175° South 439 505 37,600 -1,475 Descending Oakland Center
Mon 10:41:17 AM 40.7836 -121.7669 175° South 441 507 36,000 -1,268 Descending Oakland Center
Mon 10:42:19 AM 40.6592 -121.7558 176° South 444 511 35,000 -1,902 Descending Oakland Center
Mon 10:43:20 AM 40.5347 -121.7428 175° South 445 512 32,100 -2,607 Descending Oakland Center
Mon 10:44:21 AM 40.4128 -121.7297 175° South 440 506 29,700 -2,262 Descending Oakland Center
Mon 10:45:22 AM 40.2947 -121.7178 176° South 428 493 27,500 -2,164 Descending Oakland Center
Mon 10:46:23 AM 40.1806 -121.7069 176° South 413 475 25,300 -2,311 Descending Oakland Center
Mon 10:47:24 AM 40.0494 -121.6944 176° South 395 455 22,800 -2,213 Descending Oakland Center
Mon 10:48:25 AM 39.9447 -121.6842 176° South 381 438 20,800 -1,967 Descending Oakland Center
Mon 10:49:26 AM 39.8428 -121.6744 176° South 370 426 18,800 -1,869 Descending Oakland Center
Mon 10:50:27 AM 39.7442 -121.6656 176° South 359 413 17,000 -1,967 Descending Oakland Center
Mon 10:51:28 AM 39.6475 -121.6556 175° South 351 404 14,800 -2,115 Descending Oakland Center
Mon 10:52:29 AM 39.5511 -121.6461 176° South 348 400 12,700 -1,377 Descending Oakland Center
Mon 10:53:30 AM 39.4644 -121.6394 177° South 341 392 12,000 -689 Descending Oakland Center
Mon 10:54:31 AM 39.3747 -121.6519 186° South 328 377 11,300 -878 Descending Oakland Center
Mon 10:55:33 AM 39.2875 -121.6647 186° South 319 367 10,200 -1,220 Descending Oakland Center
Mon 10:56:34 AM 39.1944 -121.6769 186° South 290 334 8,800 -1,131 Descending Oakland Center
Mon 10:57:35 AM 39.1181 -121.6886 187° South 279 321 7,900 -836 Descending Oakland Center
Mon 10:58:36 AM 39.0408 -121.6989 186° South 279 321 7,100 -787 Descending Oakland Center
Mon 10:59:37 AM 38.9672 -121.7097 187° South 272 313 6,300 -836 Descending Oakland Center
Mon 11:00:38 AM 38.8942 -121.7047 177° South 267 307 5,400 -787 Descending Oakland Center
Mon 11:01:39 AM 38.8233 -121.6994 177° South 259 298 4,700 -738 Descending Oakland Center
Mon 11:02:40 AM 38.7600 -121.6950 177° South 233 268 3,900 -836 Descending Oakland Center
Mon 11:03:41 AM 38.6986 -121.6906 177° South 225 259 3,000 -443 Descending Oakland Center
Mon 11:04:42 AM 38.6397 -121.6864 177° South 216 249 3,000 -49 Level Oakland Center
Mon 11:05:43 AM 38.5833 -121.6828 177° South 208 239 2,900 -347 Descending Oakland Center
Mon 11:06:43 AM 38.5653 -121.6308 114° Southeast 198 228 2,300 -744 Descending Oakland Center
Mon 11:07:44 AM 38.6119 -121.6056 23° Northeast 155 178 1,400 -756 Descending Oakland Center
Mon 11:08:42 AM 38.6500 -121.6000 North 130 150 800 -661 Descending Northern Cal TRACON
Mon 11:09:42 AM 38.6833 -121.6000 360° North 126 145 100 -700 Descending Northern Cal TRACON

Login

Don't have an account? Register now (free) for customized features, flight alerts, and more!